CA-0397 weather

CLOSED Vankleek Hill Airport
Vankleek Hill, Ontario, Canada

Public forecast

Using degrees Celsius for public forecast. Weather courtesy of forecast.io.

Closest aviation weather report (METAR) to Vankleek Hill Airport

Closest report is Montreal International (Mirabel) Airport, 30.4 nm (56.3 km) ENE. Retrieved 2020/05/29 19:00 UTC (28 minutes ago):

CYMX 291900Z 23010G19KT 200V270 25SM FEW060 SCT120 SCT250 30/16 A2970 RMK CU1AC2CI1 SLP060 DENSITY ALT 2300FT

Closest aviation forecast (TAF) to Vankleek Hill Airport

Closest forecast is Montreal International (Mirabel) Airport, 30.4 nm (56.3 km) ENE. Retrieved 2020/05/29 18:57 UTC (31 minutes ago):

TAF TAF CYMX 291753Z 2918/3018 24018G28KT P6SM BKN060 BKN250 FM292100 23015G25KT P6SM SCT030CB BKN050 TEMPO 2922/2924 VRB20G30KT 5SM TSRA BKN015 BKN030CB PROB40 2922/2923 VRB25G35KT 1SM +TSRA BKN008 OVC015CB FM300000 24015G25KT 6SM -SHRA BR SCT010 BKN020 TEMPO 3000/3004 4SM SHRA BR OVC008 PROB30 3000/3004 VRB15G25KT 2SM TSRA BR BKN008 OVC015CB FM300400 24012G22KT 6SM -RA BR OVC020 FM300600 24012G22KT P6SM BKN030 FM300800 22012G22KT 6SM -RA BR OVC012 FM301200 29015KT P6SM BKN020 FM301500 29010KT P6SM BKN030 FM301700 25010KT P6SM SCT040 RMK NXT FCST BY 300000Z